KMWA/MWA METAR and TAF weather

Enter ICAO airport designator
Station Type Date Time Source
KMWA METAR 2021/05/17 20:45 UTC NOAA

KMWA 172045Z 13010KT 10SM OVC090 22/17 A3006


Station Type Date Time Source
KMWA Decoded METAR 2021/05/17 20:45 UTC NOAA

Marion, Williamson County Regional Airport, IL, United States (KMWA) 37-45-01N 089-00-04W
May 17, 2021 - 04:45 PM EDT / 2021.05.17 2045 UTC
Wind: from the SE (130 degrees) at 12 MPH (10 KT):0
Visibility: 10 mile(s):0
Sky conditions: overcast
Temperature: 71 F (22 C)
Dew Point: 62 F (17 C)
Relative Humidity: 73%
Pressure (altimeter): 30.06 in. Hg (1017 hPa)
ob: KMWA 172045Z 13010KT 10SM OVC090 22/17 A3006
cycle: 21

Station Type Date Time Source
KMWA TAF UTC NOAA

Error!

Example: see airport list